Time;durP1;ratioP1;P1;durP2;ratioP2;P2;SDS_P1;SDS_P2;PMS_P1;PMS_P2;Temp;Humidity;BMP_temperature;BMP_pressure;BME280_temperature;BME280_humidity;BME280_pressure;Samples;Min_cycle;Max_cycle;Signal;HPM_P1;HPM_P2
2021/07/07 00:00:11;;;;;;;1.58;0.95;;;;;;;-144.13;100.00;64086.75;4955393;28;20457;-56
2021/07/07 00:02:36;;;;;;;1.63;0.93;;;;;;;-144.13;100.00;64086.75;4958875;28;20326;-52
2021/07/07 00:05:03;;;;;;;3.30;1.30;;;;;;;-144.13;100.00;64086.75;4955180;28;20038;-52
2021/07/07 00:07:29;;;;;;;1.70;0.80;;;;;;;-144.13;100.00;64086.75;4958238;28;20072;-52
2021/07/07 00:09:54;;;;;;;1.75;1.10;;;;;;;-144.13;100.00;64086.75;4957225;28;20027;-51
2021/07/07 00:12:20;;;;;;;2.10;1.20;;;;;;;-144.13;100.00;64086.75;4956531;28;20078;-51
2021/07/07 00:14:45;;;;;;;1.10;1.00;;;;;;;-144.13;100.00;64086.75;4944543;28;20023;-52
2021/07/07 00:17:10;;;;;;;2.53;1.00;;;;;;;-144.13;100.00;64086.75;4960043;28;20073;-52
2021/07/07 00:19:36;;;;;;;1.33;1.20;;;;;;;-144.13;100.00;64086.75;4959435;28;20106;-52
2021/07/07 00:22:02;;;;;;;1.15;1.00;;;;;;;-144.13;100.00;64086.75;4957160;28;20039;-52
2021/07/07 00:24:28;;;;;;;1.83;1.17;;;;;;;-144.13;100.00;64086.75;4959803;28;20026;-53
2021/07/07 00:26:53;;;;;;;4.88;1.33;;;;;;;-144.13;100.00;64086.75;4958438;28;20042;-53
2021/07/07 00:29:19;;;;;;;2.13;1.23;;;;;;;-144.13;100.00;64086.75;4958154;28;20393;-52
2021/07/07 00:31:44;;;;;;;1.30;0.95;;;;;;;-144.13;100.00;64086.75;4958599;28;20030;-51
2021/07/07 00:34:10;;;;;;;1.65;1.33;;;;;;;-144.13;100.00;64086.75;4960179;28;20050;-53
2021/07/07 00:36:35;;;;;;;2.55;0.90;;;;;;;-144.13;100.00;64086.75;4957204;28;20038;-53
2021/07/07 00:39:03;;;;;;;0.95;0.93;;;;;;;-144.13;100.00;64086.75;4957723;28;20026;-54
2021/07/07 00:41:29;;;;;;;1.65;1.40;;;;;;;-144.13;100.00;64086.75;4954363;28;20589;-54
2021/07/07 00:43:55;;;;;;;1.50;1.10;;;;;;;-144.13;100.00;64086.75;4961755;28;20108;-50
2021/07/07 00:46:20;;;;;;;2.08;0.95;;;;;;;-144.13;100.00;64086.75;4951537;28;20548;-51
2021/07/07 00:48:46;;;;;;;7.13;1.63;;;;;;;-144.13;100.00;64086.75;4956795;28;20030;-53
2021/07/07 00:51:14;;;;;;;1.55;1.30;;;;;;;-144.13;100.00;64086.75;4956196;28;20039;-54
2021/07/07 00:53:40;;;;;;;1.45;1.33;;;;;;;-144.13;100.00;64086.75;4942410;28;20031;-51
2021/07/07 00:56:07;;;;;;;1.33;1.20;;;;;;;-144.13;100.00;64086.75;4960970;28;20022;-51
2021/07/07 00:58:34;;;;;;;2.65;1.20;;;;;;;-144.13;100.00;64086.75;4959461;28;20033;-53
2021/07/07 01:01:03;;;;;;;2.30;1.15;;;;;;;-144.13;100.00;64086.75;4957669;28;20122;-52
2021/07/07 01:03:29;;;;;;;7.18;1.20;;;;;;;-144.13;100.00;64086.75;4957840;28;20038;-52
2021/07/07 01:05:54;;;;;;;1.45;1.30;;;;;;;-144.13;100.00;64086.75;4955071;28;20031;-49
2021/07/07 01:08:19;;;;;;;1.58;1.20;;;;;;;-144.13;100.00;64086.75;4960075;28;20062;-50
2021/07/07 01:10:45;;;;;;;1.55;1.42;;;;;;;-144.13;100.00;64086.75;4957586;28;20393;-51
2021/07/07 01:13:13;;;;;;;3.85;1.40;;;;;;;-144.13;100.00;64086.75;4951948;28;20027;-53
2021/07/07 01:15:40;;;;;;;3.67;1.42;;;;;;;-144.13;100.00;64086.75;4955230;28;20507;-52
2021/07/07 01:18:06;;;;;;;3.15;1.50;;;;;;;-144.13;100.00;64086.75;4955034;28;20038;-49
2021/07/07 01:20:31;;;;;;;3.20;1.20;;;;;;;-144.13;100.00;64086.75;4953433;28;20046;-52
2021/07/07 01:22:57;;;;;;;1.75;1.27;;;;;;;-144.13;100.00;64086.75;4956659;28;20030;-53
2021/07/07 01:25:23;;;;;;;1.88;1.23;;;;;;;-144.13;100.00;64086.75;4953648;28;21053;-51
2021/07/07 01:27:49;;;;;;;2.38;1.40;;;;;;;-144.13;100.00;64086.75;4956892;28;20042;-51
2021/07/07 01:30:18;;;;;;;2.15;1.40;;;;;;;-144.13;100.00;64086.75;4957198;28;20109;-53
2021/07/07 01:32:45;;;;;;;1.92;1.30;;;;;;;-144.13;100.00;64086.75;4956403;28;20031;-49
2021/07/07 01:35:12;;;;;;;3.67;1.58;;;;;;;-144.13;100.00;64086.75;4955610;28;20115;-51
2021/07/07 01:37:38;;;;;;;2.22;1.45;;;;;;;-144.13;100.00;64086.75;4957177;28;20244;-51
2021/07/07 01:40:05;;;;;;;3.17;1.45;;;;;;;-144.13;100.00;64086.75;4958239;28;20455;-51
2021/07/07 01:42:31;;;;;;;1.83;1.40;;;;;;;-144.13;100.00;64086.75;4945195;28;20461;-52
2021/07/07 01:44:56;;;;;;;2.78;1.55;;;;;;;-144.13;100.00;64086.75;4956436;28;21659;-53
2021/07/07 01:47:22;;;;;;;3.10;1.33;;;;;;;-144.13;100.00;64086.75;4956329;28;20027;-51
2021/07/07 01:49:47;;;;;;;2.05;1.50;;;;;;;-144.13;100.00;64086.75;4960417;28;20062;-49
2021/07/07 01:52:13;;;;;;;3.35;1.38;;;;;;;-144.13;100.00;64086.75;4956303;28;20026;-50
2021/07/07 01:54:38;;;;;;;1.92;1.38;;;;;;;-144.13;100.00;64086.75;4957094;28;20736;-53
2021/07/07 01:57:04;;;;;;;3.22;1.70;;;;;;;-144.13;100.00;64086.75;4958977;28;20035;-49
2021/07/07 01:59:29;;;;;;;3.58;1.77;;;;;;;-144.13;100.00;64086.75;4956671;28;20038;-52
2021/07/07 02:01:55;;;;;;;1.33;1.23;;;;;;;-144.13;100.00;64086.75;4956587;28;20057;-51
2021/07/07 02:04:22;;;;;;;6.18;1.92;;;;;;;-144.13;100.00;64086.75;4956907;28;20438;-52
2021/07/07 02:06:49;;;;;;;2.55;1.52;;;;;;;-144.13;100.00;64086.75;4958533;28;20046;-52
2021/07/07 02:09:15;;;;;;;2.65;1.35;;;;;;;-144.13;100.00;64086.75;4956956;28;20059;-53
2021/07/07 02:11:41;;;;;;;5.43;1.52;;;;;;;-144.13;100.00;64086.75;4946380;28;20022;-51
2021/07/07 02:14:06;;;;;;;2.25;1.50;;;;;;;-144.13;100.00;64086.75;4956399;28;20111;-53
2021/07/07 02:16:32;;;;;;;1.70;1.60;;;;;;;-144.13;100.00;64086.75;4956108;28;20023;-53
2021/07/07 02:18:57;;;;;;;3.95;1.90;;;;;;;-144.13;100.00;64086.75;4941299;28;20383;-49
2021/07/07 02:21:23;;;;;;;2.53;1.80;;;;;;;-144.13;100.00;64086.75;4951772;28;20026;-54
2021/07/07 02:23:48;;;;;;;2.88;1.65;;;;;;;-144.13;100.00;64086.75;4954717;28;20031;-51
2021/07/07 02:26:14;;;;;;;4.18;1.70;;;;;;;-144.13;100.00;64086.75;4953837;28;20034;-54
2021/07/07 02:28:39;;;;;;;1.33;1.23;;;;;;;-144.13;100.00;64086.75;4953499;28;20023;-53
2021/07/07 02:31:05;;;;;;;5.80;1.58;;;;;;;-144.13;100.00;64086.75;4958555;28;20155;-51
2021/07/07 02:33:30;;;;;;;2.55;1.63;;;;;;;-144.13;100.00;64086.75;4958599;28;20039;-52
2021/07/07 02:35:56;;;;;;;2.45;1.80;;;;;;;-144.13;100.00;64086.75;4954466;28;20158;-51
2021/07/07 02:38:23;;;;;;;6.90;1.65;;;;;;;-144.13;100.00;64086.75;4955359;28;20059;-53
2021/07/07 02:40:51;;;;;;;2.22;1.60;;;;;;;-144.13;100.00;64086.75;4955360;28;20102;-51
2021/07/07 02:43:16;;;;;;;2.15;1.92;;;;;;;-144.13;100.00;64086.75;4951143;28;20501;-50
2021/07/07 02:45:42;;;;;;;3.90;1.80;;;;;;;-144.13;100.00;64086.75;4958249;28;20035;-49
2021/07/07 02:48:10;;;;;;;2.10;1.90;;;;;;;-144.13;100.00;64086.75;4952841;28;20127;-51
2021/07/07 02:50:37;;;;;;;3.20;1.90;;;;;;;-144.13;100.00;64086.75;4952328;28;20110;-55
2021/07/07 02:53:06;;;;;;;2.17;1.70;;;;;;;-144.13;100.00;64086.75;4947254;28;20031;-54
2021/07/07 02:55:32;;;;;;;4.57;1.92;;;;;;;-144.13;100.00;64086.75;4954225;28;20061;-52
2021/07/07 02:57:58;;;;;;;2.40;1.80;;;;;;;-144.13;100.00;64086.75;4947188;28;20113;-52
2021/07/07 03:00:44;;;;;;;3.05;1.63;;;;;;;-144.13;100.00;64086.75;4957080;28;20037;-52
2021/07/07 03:03:18;;;;;;;3.33;2.17;;;;;;;-144.13;100.00;64086.75;4955128;28;20110;-53
2021/07/07 03:05:50;;;;;;;2.10;1.90;;;;;;;-144.13;100.00;64086.75;4956871;28;20184;-53
2021/07/07 03:08:17;;;;;;;4.07;2.00;;;;;;;-144.13;100.00;64086.75;4951853;28;20525;-52
2021/07/07 03:10:44;;;;;;;3.42;2.10;;;;;;;-144.13;100.00;64086.75;4955121;28;20038;-50
2021/07/07 03:13:11;;;;;;;2.50;1.85;;;;;;;-144.13;100.00;64086.75;4963976;28;20164;-52
2021/07/07 03:15:38;;;;;;;2.80;1.90;;;;;;;-144.13;100.00;64086.75;4960768;28;20023;-53
2021/07/07 03:18:07;;;;;;;3.22;2.15;;;;;;;-144.13;100.00;64086.75;4962639;28;20376;-50
2021/07/07 03:20:34;;;;;;;3.78;2.20;;;;;;;-144.13;100.00;64086.75;4946065;28;20061;-52
2021/07/07 03:23:00;;;;;;;2.50;2.20;;;;;;;-144.13;100.00;64086.75;4961785;28;20058;-52
2021/07/07 03:25:26;;;;;;;2.60;1.98;;;;;;;-144.13;100.00;64086.75;4964645;28;20093;-51
2021/07/07 03:27:51;;;;;;;2.30;1.90;;;;;;;-144.13;100.00;64086.75;4964838;28;20027;-53
2021/07/07 03:30:18;;;;;;;4.82;1.95;;;;;;;-144.13;100.00;64086.75;4960356;28;20027;-50
2021/07/07 03:32:44;;;;;;;4.05;2.15;;;;;;;-144.13;100.00;64086.75;4964300;28;20031;-52
2021/07/07 03:35:10;;;;;;;3.75;2.20;;;;;;;-144.13;100.00;64086.75;4962496;28;20119;-54
2021/07/07 03:37:36;;;;;;;8.65;2.28;;;;;;;-144.13;100.00;64086.75;4961071;28;20548;-52
2021/07/07 03:40:04;;;;;;;4.18;2.13;;;;;;;-144.13;100.00;64086.75;4963872;28;20037;-53
2021/07/07 03:42:29;;;;;;;3.05;2.03;;;;;;;-144.13;100.00;64086.75;4963782;28;20035;-51
2021/07/07 03:44:56;;;;;;;2.15;1.80;;;;;;;-144.13;100.00;64086.75;4946706;28;20031;-50
2021/07/07 03:47:22;;;;;;;1.73;1.55;;;;;;;-144.13;100.00;64086.75;4960791;28;21608;-53
2021/07/07 03:49:47;;;;;;;2.20;1.90;;;;;;;-144.13;100.00;64086.75;4960888;28;20355;-51
2021/07/07 03:52:13;;;;;;;3.70;2.00;;;;;;;-144.13;100.00;64086.75;4957773;28;20039;-50
2021/07/07 03:54:38;;;;;;;3.40;1.88;;;;;;;-144.13;100.00;64086.75;4962491;28;20058;-52
2021/07/07 03:57:04;;;;;;;2.63;1.90;;;;;;;-144.13;100.00;64086.75;4958550;28;20232;-51
2021/07/07 03:59:29;;;;;;;2.63;1.77;;;;;;;-144.13;100.00;64086.75;4958687;28;20053;-53
2021/07/07 04:01:55;;;;;;;2.90;2.10;;;;;;;-144.13;100.00;64086.75;4959651;28;20031;-53
2021/07/07 04:04:21;;;;;;;2.10;1.88;;;;;;;-144.13;100.00;64086.75;4941640;28;20114;-49
2021/07/07 04:06:46;;;;;;;2.33;2.10;;;;;;;-144.13;100.00;64086.75;4959637;28;20050;-52
2021/07/07 04:09:13;;;;;;;4.28;2.45;;;;;;;-144.13;100.00;64086.75;4957666;28;20234;-49
2021/07/07 04:11:40;;;;;;;3.30;2.20;;;;;;;-144.13;100.00;64086.75;4959402;28;20310;-53
2021/07/07 04:14:06;;;;;;;5.53;2.15;;;;;;;-144.13;100.00;64086.75;4954649;28;20031;-55
2021/07/07 04:16:31;;;;;;;5.55;2.58;;;;;;;-144.13;100.00;64086.75;4958439;28;20035;-49
2021/07/07 04:18:57;;;;;;;6.28;2.58;;;;;;;-144.13;100.00;64086.75;4959170;28;20026;-51
2021/07/07 04:21:22;;;;;;;3.30;2.50;;;;;;;-144.13;100.00;64086.75;4957030;28;20057;-53
2021/07/07 04:23:47;;;;;;;3.85;1.95;;;;;;;-144.13;100.00;64086.75;4955490;28;20035;-52
2021/07/07 04:26:13;;;;;;;4.97;2.58;;;;;;;-144.13;100.00;64086.75;4959711;28;20034;-53
2021/07/07 04:28:39;;;;;;;3.97;2.40;;;;;;;-144.13;100.00;64086.75;4955756;28;20528;-53
2021/07/07 04:31:04;;;;;;;3.67;2.70;;;;;;;-144.13;100.00;64086.75;4959450;28;20066;-51
2021/07/07 04:33:30;;;;;;;5.57;2.60;;;;;;;-144.13;100.00;64086.75;4957510;28;20038;-51
2021/07/07 04:35:55;;;;;;;4.30;2.63;;;;;;;-144.13;100.00;64086.75;4958087;28;20069;-54
2021/07/07 04:38:21;;;;;;;5.80;2.78;;;;;;;-144.13;100.00;64086.75;4959696;28;21684;-54
2021/07/07 04:40:46;;;;;;;3.05;2.75;;;;;;;-144.13;100.00;64086.75;4956719;28;20045;-52
2021/07/07 04:43:12;;;;;;;3.67;2.85;;;;;;;-144.13;100.00;64086.75;4958556;28;20022;-51
2021/07/07 04:45:37;;;;;;;6.47;2.75;;;;;;;-144.13;100.00;64086.75;4955040;28;20027;-51
2021/07/07 04:48:03;;;;;;;3.88;2.70;;;;;;;-144.13;100.00;64086.75;4955567;28;20027;-50
2021/07/07 04:50:29;;;;;;;5.38;2.60;;;;;;;-144.13;100.00;64086.75;4954683;28;20081;-50
2021/07/07 04:52:54;;;;;;;5.97;3.05;;;;;;;-144.13;100.00;64086.75;4957325;28;20443;-53
2021/07/07 04:55:20;;;;;;;4.53;2.60;;;;;;;-144.13;100.00;64086.75;4957906;28;20014;-52
2021/07/07 04:57:46;;;;;;;4.55;3.28;;;;;;;-144.13;100.00;64086.75;4962537;28;20027;-54
2021/07/07 05:00:22;;;;;;;5.35;3.35;;;;;;;-144.13;100.00;64086.75;4957428;28;20113;-52
2021/07/07 05:02:50;;;;;;;4.72;3.08;;;;;;;-144.13;100.00;64086.75;4956948;28;20495;-52
2021/07/07 05:05:17;;;;;;;5.43;2.55;;;;;;;-144.13;100.00;64086.75;4959757;28;20034;-53
2021/07/07 05:07:44;;;;;;;3.33;2.58;;;;;;;-144.13;100.00;64086.75;4957734;28;20075;-54
2021/07/07 05:10:11;;;;;;;6.72;2.92;;;;;;;-144.13;100.00;64086.75;4960477;28;20032;-54
2021/07/07 05:12:37;;;;;;;5.88;2.70;;;;;;;-144.13;100.00;64086.75;4943326;28;20028;-54
2021/07/07 05:15:04;;;;;;;4.88;2.60;;;;;;;-144.13;100.00;64086.75;4958293;28;20031;-53
2021/07/07 05:17:30;;;;;;;4.60;2.60;;;;;;;-144.13;100.00;64086.75;4954351;28;20438;-54
2021/07/07 05:19:58;;;;;;;6.15;2.40;;;;;;;-144.13;100.00;64086.75;4961414;28;20061;-52
2021/07/07 05:22:24;;;;;;;4.93;2.60;;;;;;;-144.13;100.00;64086.75;4954867;28;20035;-54
2021/07/07 05:24:50;;;;;;;4.65;2.75;;;;;;;-144.13;100.00;64086.75;4957989;28;20038;-52
2021/07/07 05:27:15;;;;;;;5.97;2.65;;;;;;;-144.13;100.00;64086.75;4957805;28;20639;-51
2021/07/07 05:29:41;;;;;;;4.93;2.85;;;;;;;-144.13;100.00;64086.75;4943110;28;20033;-53
2021/07/07 05:32:07;;;;;;;4.38;2.65;;;;;;;-144.13;100.00;64086.75;4957794;28;20401;-52
2021/07/07 05:34:35;;;;;;;2.50;2.30;;;;;;;-144.13;100.00;64086.75;4956261;28;20027;-51
2021/07/07 05:37:01;;;;;;;8.65;3.50;;;;;;;-144.13;100.00;64086.75;4953062;28;20031;-52
2021/07/07 05:39:26;;;;;;;4.20;2.90;;;;;;;-144.13;100.00;64086.75;4957962;28;20096;-52
2021/07/07 05:41:52;;;;;;;5.50;2.97;;;;;;;-144.13;100.00;64086.75;4956053;28;20081;-50
2021/07/07 05:44:17;;;;;;;3.97;2.50;;;;;;;-144.13;100.00;64086.75;4942403;28;20275;-53
2021/07/07 05:46:43;;;;;;;3.15;2.83;;;;;;;-144.13;100.00;64086.75;4959493;28;20037;-52
2021/07/07 05:49:08;;;;;;;4.75;2.80;;;;;;;-144.13;100.00;64086.75;4955334;28;20027;-55
2021/07/07 05:51:34;;;;;;;2.72;2.40;;;;;;;-144.13;100.00;64086.75;4954875;28;20257;-54
2021/07/07 05:53:59;;;;;;;5.95;2.67;;;;;;;-144.13;100.00;64086.75;4956283;28;20057;-55
2021/07/07 05:56:25;;;;;;;4.80;2.53;;;;;;;-144.13;100.00;64086.75;4958214;28;20050;-53
2021/07/07 05:58:50;;;;;;;3.15;2.85;;;;;;;-144.13;100.00;64086.75;4959624;28;20042;-52
2021/07/07 06:01:15;;;;;;;2.70;2.45;;;;;;;-144.13;100.00;64086.75;4952092;28;20039;-52
2021/07/07 06:03:42;;;;;;;4.47;2.70;;;;;;;-144.13;100.00;64086.75;4955434;28;20087;-54
2021/07/07 06:06:08;;;;;;;2.85;2.58;;;;;;;-144.13;100.00;64086.75;4959525;28;20027;-55
2021/07/07 06:08:33;;;;;;;6.10;2.90;;;;;;;-144.13;100.00;64086.75;4956703;28;20464;-53
2021/07/07 06:10:59;;;;;;;4.22;3.05;;;;;;;-144.13;100.00;64086.75;4955988;28;20065;-53
2021/07/07 06:13:24;;;;;;;4.28;2.50;;;;;;;-144.13;100.00;64086.75;4958076;28;20031;-52
2021/07/07 06:15:50;;;;;;;3.53;2.80;;;;;;;-144.13;100.00;64086.75;4957390;28;20026;-50
2021/07/07 06:18:16;;;;;;;4.47;2.45;;;;;;;-144.13;100.00;64086.75;4954385;28;20418;-54
2021/07/07 06:20:41;;;;;;;4.10;2.83;;;;;;;-144.13;100.00;64086.75;4958131;28;20216;-51
2021/07/07 06:23:07;;;;;;;3.90;2.70;;;;;;;-144.13;100.00;64086.75;4958634;28;20065;-51
2021/07/07 06:25:32;;;;;;;3.65;2.20;;;;;;;-144.13;100.00;64086.75;4954394;28;20478;-56
2021/07/07 06:28:00;;;;;;;5.07;2.60;;;;;;;-144.13;100.00;64086.75;4958143;28;20027;-50
2021/07/07 06:30:27;;;;;;;3.00;2.25;;;;;;;-144.13;100.00;64086.75;4955674;28;20062;-50
2021/07/07 06:32:54;;;;;;;3.45;2.55;;;;;;;-144.13;100.00;64086.75;4956497;28;20031;-50
2021/07/07 06:35:20;;;;;;;4.07;2.85;;;;;;;-144.13;100.00;64086.75;4957799;28;20024;-49
2021/07/07 06:37:48;;;;;;;5.90;2.83;;;;;;;-144.13;100.00;64086.75;4960409;28;20047;-49
2021/07/07 06:40:16;;;;;;;5.22;2.95;;;;;;;-144.13;100.00;64086.75;4955822;28;20734;-52
2021/07/07 06:42:42;;;;;;;7.07;2.60;;;;;;;-144.13;100.00;64086.75;4956087;28;20118;-51
2021/07/07 06:45:09;;;;;;;4.93;2.75;;;;;;;-144.13;100.00;64086.75;4956190;28;20047;-53
2021/07/07 06:47:35;;;;;;;8.00;2.88;;;;;;;-144.13;100.00;64086.75;4941607;28;20097;-53
2021/07/07 06:50:01;;;;;;;4.00;2.40;;;;;;;-144.13;100.00;64086.75;4961972;28;20116;-51
2021/07/07 06:52:27;;;;;;;5.05;2.42;;;;;;;-144.13;100.00;64086.75;4958323;28;20117;-51
2021/07/07 06:54:53;;;;;;;4.30;3.03;;;;;;;-144.13;100.00;64086.75;4959990;28;20228;-50
2021/07/07 06:57:19;;;;;;;3.00;2.72;;;;;;;-144.13;100.00;64086.75;4958402;28;20027;-53
2021/07/07 06:59:44;;;;;;;8.35;3.13;;;;;;;-144.13;100.00;64086.75;4960477;28;20374;-50
2021/07/07 07:02:10;;;;;;;4.47;2.80;;;;;;;-144.13;100.00;64086.75;4956631;28;20495;-50
2021/07/07 07:04:35;;;;;;;3.45;2.30;;;;;;;-144.13;100.00;64086.75;4958713;28;20036;-52
2021/07/07 07:07:01;;;;;;;8.10;2.72;;;;;;;-144.13;100.00;64086.75;4959540;28;20191;-51
2021/07/07 07:09:27;;;;;;;7.07;2.72;;;;;;;-144.13;100.00;64086.75;4958100;28;20428;-53
2021/07/07 07:11:53;;;;;;;4.75;2.72;;;;;;;-144.13;100.00;64086.75;4963791;28;20027;-51
2021/07/07 07:14:19;;;;;;;5.68;2.97;;;;;;;-144.13;100.00;64086.75;4961715;28;20513;-53
2021/07/07 07:16:45;;;;;;;4.40;2.75;;;;;;;-144.13;100.00;64086.75;4960836;28;20035;-49
2021/07/07 07:19:11;;;;;;;5.68;2.42;;;;;;;-144.13;100.00;64086.75;4959723;28;20031;-51
2021/07/07 07:21:37;;;;;;;4.43;2.83;;;;;;;-144.13;100.00;64086.75;4964170;28;20056;-50
2021/07/07 07:24:03;;;;;;;5.82;3.97;;;;;;;-144.13;100.00;64086.75;4945646;28;20042;-53
2021/07/07 07:26:29;;;;;;;4.25;3.05;;;;;;;-144.13;100.00;64086.75;4941518;28;20407;-51
2021/07/07 07:28:55;;;;;;;7.78;3.17;;;;;;;-144.13;100.00;64086.75;4967899;28;20712;-53
2021/07/07 07:31:22;;;;;;;5.68;3.83;;;;;;;-144.13;100.00;64086.75;4960267;28;20254;-49
2021/07/07 07:33:48;;;;;;;4.90;2.97;;;;;;;-144.13;100.00;64086.75;4961200;28;20031;-49
2021/07/07 07:36:14;;;;;;;7.38;2.80;;;;;;;-144.13;100.00;64086.75;4959038;28;20031;-55
2021/07/07 07:38:41;;;;;;;6.85;2.88;;;;;;;-144.13;100.00;64086.75;4963628;28;20038;-51
2021/07/07 07:41:07;;;;;;;6.57;3.22;;;;;;;-144.13;100.00;64086.75;4961138;28;20060;-54
2021/07/07 07:43:33;;;;;;;7.40;2.90;;;;;;;-144.13;100.00;64086.75;4958114;28;20456;-50
2021/07/07 07:45:59;;;;;;;4.45;3.50;;;;;;;-144.13;100.00;64086.75;4956257;28;20035;-52
2021/07/07 07:48:26;;;;;;;6.68;3.00;;;;;;;-144.13;100.00;64086.75;4957480;28;20386;-52
2021/07/07 07:50:52;;;;;;;7.00;3.13;;;;;;;-144.13;100.00;64086.75;4962030;28;20361;-51
2021/07/07 07:53:18;;;;;;;5.95;3.40;;;;;;;-144.13;100.00;64086.75;4955545;28;20038;-52
2021/07/07 07:55:43;;;;;;;6.75;3.20;;;;;;;-144.13;100.00;64086.75;4961916;28;20417;-53
2021/07/07 07:58:09;;;;;;;6.07;3.10;;;;;;;-144.13;100.00;64086.75;4959204;28;20486;-54
2021/07/07 08:00:35;;;;;;;5.95;3.70;;;;;;;-144.13;100.00;64086.75;4955712;28;20046;-51
2021/07/07 08:03:00;;;;;;;7.35;3.72;;;;;;;-144.13;100.00;64086.75;4958577;28;20031;-52
2021/07/07 08:05:26;;;;;;;6.60;3.45;;;;;;;-144.13;100.00;64086.75;4955208;28;20062;-51
2021/07/07 08:07:52;;;;;;;6.00;3.00;;;;;;;-144.13;100.00;64086.75;4956982;28;20312;-51
2021/07/07 08:10:21;;;;;;;4.97;3.20;;;;;;;-144.13;100.00;64086.75;4956983;28;20027;-51
2021/07/07 08:12:49;;;;;;;3.45;2.88;;;;;;;-144.13;100.00;64086.75;4956258;28;20481;-54
2021/07/07 08:15:15;;;;;;;5.35;3.17;;;;;;;-144.13;100.00;64086.75;4953682;28;21747;-50
2021/07/07 08:17:40;;;;;;;4.20;2.92;;;;;;;-144.13;100.00;64086.75;4958240;28;20109;-52
2021/07/07 08:20:08;;;;;;;4.10;3.15;;;;;;;-144.13;100.00;64086.75;4958841;28;20113;-50
2021/07/07 08:22:33;;;;;;;4.07;2.80;;;;;;;-144.13;100.00;64086.75;4958828;28;20449;-52
2021/07/07 08:24:59;;;;;;;3.67;3.05;;;;;;;-144.13;100.00;64086.75;4958044;28;20110;-51
2021/07/07 08:27:24;;;;;;;6.57;3.30;;;;;;;-144.13;100.00;64086.75;4958132;28;20035;-49
2021/07/07 08:29:50;;;;;;;5.53;3.03;;;;;;;-144.13;100.00;64086.75;4958098;28;20370;-51
2021/07/07 08:32:16;;;;;;;7.57;3.67;;;;;;;-144.13;100.00;64086.75;4954188;28;20070;-52
2021/07/07 08:34:41;;;;;;;3.17;2.50;;;;;;;-144.13;100.00;64086.75;4957334;28;20026;-51
2021/07/07 08:37:07;;;;;;;6.68;2.78;;;;;;;-144.13;100.00;64086.75;4957433;28;20038;-53
2021/07/07 08:39:33;;;;;;;4.43;2.42;;;;;;;-144.13;100.00;64086.75;4944075;28;20374;-49
2021/07/07 08:41:58;;;;;;;3.17;2.88;;;;;;;-144.13;100.00;64086.75;4951430;28;20031;-50
2021/07/07 08:44:24;;;;;;;5.32;2.70;;;;;;;-144.13;100.00;64086.75;4952616;28;20389;-54
2021/07/07 08:46:52;;;;;;;6.60;3.17;;;;;;;-144.13;100.00;64086.75;4952202;28;20470;-51
2021/07/07 08:49:18;;;;;;;2.95;2.65;;;;;;;-144.13;100.00;64086.75;4954853;28;20081;-51
2021/07/07 08:51:44;;;;;;;4.72;2.33;;;;;;;-144.13;100.00;64086.75;4954017;28;20031;-52
2021/07/07 08:54:10;;;;;;;4.30;2.15;;;;;;;-144.13;100.00;64086.75;4952842;28;20031;-51
2021/07/07 08:56:42;;;;;;;3.65;2.42;;;;;;;-144.13;100.00;64086.75;4951533;28;20268;-54
2021/07/07 08:59:10;;;;;;;4.18;2.75;;;;;;;-144.13;100.00;64086.75;4958119;28;20481;-50
2021/07/07 09:01:58;;;;;;;4.20;2.42;;;;;;;-144.13;100.00;64086.75;4956891;28;20553;-52
2021/07/07 09:04:44;;;;;;;4.15;2.25;;;;;;;-144.13;100.00;64086.75;4953767;28;20053;-52
2021/07/07 09:07:18;;;;;;;3.70;2.50;;;;;;;-144.13;100.00;64086.75;4957071;28;20154;-53
2021/07/07 09:09:47;;;;;;;6.20;2.42;;;;;;;-144.13;100.00;64086.75;4955208;28;20061;-51
2021/07/07 09:12:12;;;;;;;9.35;2.92;;;;;;;-144.13;100.00;64086.75;4951512;28;20038;-51
2021/07/07 09:14:38;;;;;;;4.43;2.22;;;;;;;-144.13;100.00;64086.75;4957943;28;20026;-51
2021/07/07 09:17:11;;;;;;;6.63;2.05;;;;;;;-144.13;100.00;64086.75;4954798;28;20595;-52
2021/07/07 09:19:39;;;;;;;4.35;1.90;;;;;;;-144.13;100.00;64086.75;4957223;28;20051;-52
2021/07/07 09:22:07;;;;;;;4.43;1.92;;;;;;;-144.13;100.00;64086.75;4953475;28;20037;-52
2021/07/07 09:24:34;;;;;;;3.38;2.20;;;;;;;-144.13;100.00;64086.75;4957858;28;20034;-49
2021/07/07 09:27:02;;;;;;;4.07;2.17;;;;;;;-144.13;100.00;64086.75;4948754;28;20023;-49
2021/07/07 09:29:38;;;;;;;4.50;2.53;;;;;;;-144.13;100.00;64086.75;4953780;28;20059;-53
2021/07/07 09:32:11;;;;;;;5.45;2.30;;;;;;;-144.13;100.00;64086.75;4952787;28;20161;-54
2021/07/07 09:34:40;;;;;;;4.05;2.10;;;;;;;-144.13;100.00;64086.75;4952310;28;20023;-53
2021/07/07 09:37:10;;;;;;;5.20;2.33;;;;;;;-144.13;100.00;64086.75;4955522;28;20037;-50
2021/07/07 09:39:36;;;;;;;3.38;1.98;;;;;;;-144.13;100.00;64086.75;4955798;28;20027;-54
2021/07/07 09:42:02;;;;;;;3.10;2.05;;;;;;;-144.13;100.00;64086.75;4951872;28;20046;-51
2021/07/07 09:44:34;;;;;;;4.28;1.90;;;;;;;-144.13;100.00;64086.75;4942144;28;20038;-50
2021/07/07 09:47:04;;;;;;;2.95;1.90;;;;;;;-144.13;100.00;64086.75;4954760;28;20023;-50
2021/07/07 09:49:34;;;;;;;5.47;1.90;;;;;;;-144.13;100.00;64086.75;4953500;28;20301;-50
2021/07/07 09:52:00;;;;;;;3.30;1.70;;;;;;;-144.13;100.00;64086.75;4954799;28;20119;-51
2021/07/07 09:54:26;;;;;;;4.75;1.88;;;;;;;-144.13;100.00;64086.75;4958204;28;20038;-51
2021/07/07 09:56:51;;;;;;;3.22;1.70;;;;;;;-144.13;100.00;64086.75;4955089;28;20171;-52
2021/07/07 09:59:17;;;;;;;3.67;1.75;;;;;;;-144.13;100.00;64086.75;4955614;28;20042;-53
2021/07/07 10:01:46;;;;;;;4.40;2.00;;;;;;;-144.13;100.00;64086.75;4953176;28;20039;-52
2021/07/07 10:04:15;;;;;;;3.50;2.38;;;;;;;-144.13;100.00;64086.75;4953395;28;20019;-53
2021/07/07 10:06:41;;;;;;;2.95;2.60;;;;;;;-144.13;100.00;64086.75;4956770;28;20515;-54
2021/07/07 10:09:06;;;;;;;5.45;2.80;;;;;;;-144.13;100.00;64086.75;4951519;28;20110;-53
2021/07/07 10:11:33;;;;;;;3.38;2.28;;;;;;;-144.13;100.00;64086.75;4953290;28;20051;-50
2021/07/07 10:13:59;;;;;;;4.38;2.67;;;;;;;-144.13;100.00;64086.75;4954600;28;20030;-51
2021/07/07 10:16:26;;;;;;;3.80;2.53;;;;;;;-144.13;100.00;64086.75;4954224;28;20023;-52
2021/07/07 10:18:51;;;;;;;4.75;3.10;;;;;;;-144.13;100.00;64086.75;4953373;28;20078;-49
2021/07/07 10:21:18;;;;;;;7.47;3.10;;;;;;;-144.13;100.00;64086.75;4948506;28;20146;-54
2021/07/07 10:23:46;;;;;;;4.30;2.75;;;;;;;-144.13;100.00;64086.75;4954330;28;20034;-50
2021/07/07 10:26:12;;;;;;;5.90;2.75;;;;;;;-144.13;100.00;64086.75;4958544;28;20061;-51
2021/07/07 10:28:39;;;;;;;8.63;2.95;;;;;;;-144.13;100.00;64086.75;4956707;28;20509;-52
2021/07/07 10:31:04;;;;;;;5.18;2.97;;;;;;;-144.13;100.00;64086.75;4961503;28;20133;-55
2021/07/07 10:33:36;;;;;;;2.85;2.03;;;;;;;-144.13;100.00;64086.75;4942859;28;20027;-51
2021/07/07 10:36:24;;;;;;;4.68;2.30;;;;;;;-144.13;100.00;64086.75;4958662;28;20030;-51
2021/07/07 10:38:57;;;;;;;3.80;2.00;;;;;;;-144.13;100.00;64086.75;4957927;28;20028;-55
2021/07/07 10:41:47;;;;;;;5.82;2.20;;;;;;;-144.13;100.00;64086.75;4958618;28;20205;-52
2021/07/07 10:44:22;;;;;;;5.03;2.45;;;;;;;-144.13;100.00;64086.75;4956715;28;20027;-52
2021/07/07 10:47:01;;;;;;;;;;;;;;;-144.13;100.00;64086.75;4957586;28;20050;-50
2021/07/07 10:49:29;;;;;;;5.70;2.60;;;;;;;-144.13;100.00;64086.75;4957857;28;19914;-51
2021/07/07 10:51:59;;;;;;;6.07;3.10;;;;;;;-144.13;100.00;64086.75;4958401;28;20523;-51
2021/07/07 10:54:32;;;;;;;4.13;2.83;;;;;;;-144.13;100.00;64086.75;4959274;28;20908;-52
2021/07/07 10:56:59;;;;;;;5.68;2.88;;;;;;;-144.13;100.00;64086.75;4962643;28;20058;-52
2021/07/07 10:59:46;;;;;;;4.63;2.63;;;;;;;-144.13;100.00;64086.75;4962086;28;20085;-54
2021/07/07 11:02:25;;;;;;;5.78;2.28;;;;;;;-144.13;100.00;64086.75;4957753;28;20042;-54
2021/07/07 11:05:01;;;;;;;4.25;2.22;;;;;;;-144.13;100.00;64086.75;4961169;28;20083;-52
2021/07/07 11:07:34;;;;;;;4.05;2.28;;;;;;;-144.13;100.00;64086.75;4961018;28;20027;-50